createdAt,value
2018-06-23T00:01:42.862Z,2.00
2018-06-23T00:03:48.146Z,1.90
2018-06-23T00:05:53.503Z,1.80
2018-06-23T00:07:58.943Z,1.83
2018-06-23T00:10:04.500Z,1.77
2018-06-23T00:12:09.933Z,2.10
2018-06-23T00:14:17.240Z,1.80
2018-06-23T00:16:22.845Z,2.00
2018-06-23T00:18:28.152Z,1.92
2018-06-23T00:20:33.546Z,2.00
2018-06-23T00:22:39.007Z,2.05
2018-06-23T00:24:44.571Z,1.70
2018-06-23T00:26:49.925Z,1.90
2018-06-23T00:28:55.276Z,1.90
2018-06-23T00:31:00.560Z,1.90
2018-06-23T00:33:05.944Z,2.00
2018-06-23T00:35:11.025Z,1.80
2018-06-23T00:37:16.375Z,1.87
2018-06-23T00:39:21.727Z,2.13
2018-06-23T00:41:27.178Z,2.20
2018-06-23T00:43:32.559Z,1.90
2018-06-23T00:45:37.868Z,2.22
2018-06-23T00:47:43.305Z,1.60
2018-06-23T00:49:48.310Z,2.00
2018-06-23T00:51:53.675Z,1.70
2018-06-23T00:53:59.144Z,1.60
2018-06-23T00:56:04.523Z,1.90
2018-06-23T00:58:09.881Z,2.00
2018-06-23T01:00:15.380Z,2.00
2018-06-23T01:02:20.700Z,2.03
2018-06-23T01:04:26.035Z,2.00
2018-06-23T01:06:31.352Z,2.10
2018-06-23T01:08:36.664Z,1.87
2018-06-23T01:10:41.658Z,1.77
2018-06-23T01:12:46.927Z,1.80
2018-06-23T01:14:52.264Z,1.80
2018-06-23T01:16:57.907Z,2.00
2018-06-23T01:19:03.244Z,1.63
2018-06-23T01:21:08.724Z,2.00
2018-06-23T01:23:14.144Z,1.57
2018-06-23T01:25:19.913Z,1.57
2018-06-23T01:27:25.081Z,1.80
2018-06-23T01:29:30.889Z,2.20
2018-06-23T01:31:36.325Z,1.90
2018-06-23T01:33:41.646Z,2.20
2018-06-23T01:35:47.015Z,2.10
2018-06-23T01:37:52.414Z,2.00
2018-06-23T01:39:57.403Z,2.10
2018-06-23T01:42:02.672Z,2.13
2018-06-23T01:44:08.151Z,2.07
2018-06-23T01:46:13.419Z,1.83
2018-06-23T01:48:20.030Z,2.10
2018-06-23T01:50:25.384Z,1.80
2018-06-23T01:52:30.656Z,1.82
2018-06-23T01:54:36.447Z,1.70
2018-06-23T01:56:42.004Z,1.90
2018-06-23T01:58:47.299Z,2.10
2018-06-23T02:00:52.624Z,1.90
2018-06-23T02:02:57.967Z,1.97
2018-06-23T02:05:03.357Z,1.87
2018-06-23T02:07:08.672Z,2.03
2018-06-23T02:09:14.104Z,1.50
2018-06-23T02:11:20.228Z,1.80
2018-06-23T02:13:25.629Z,1.63
2018-06-23T02:15:36.720Z,2.07
2018-06-23T02:17:47.317Z,1.93
2018-06-23T02:19:57.831Z,2.03
2018-06-23T02:22:08.287Z,1.70
2018-06-23T02:24:18.592Z,2.47
2018-06-23T02:26:29.168Z,1.77
2018-06-23T02:28:39.659Z,2.00
2018-06-23T02:30:50.017Z,2.10
2018-06-23T02:32:55.383Z,1.93
2018-06-23T02:35:07.339Z,2.10
2018-06-23T02:37:12.703Z,1.70
2018-06-23T02:39:18.209Z,1.77
2018-06-23T02:41:27.608Z,1.60
2018-06-23T02:43:33.091Z,1.87
2018-06-23T02:45:38.534Z,1.60
2018-06-23T02:47:44.022Z,1.80
2018-06-23T02:49:49.419Z,2.07
2018-06-23T02:51:54.894Z,1.60
2018-06-23T02:54:00.259Z,2.03
2018-06-23T02:56:05.551Z,2.20
2018-06-23T02:58:10.844Z,1.97
2018-06-23T03:00:15.970Z,1.60
2018-06-23T03:02:21.229Z,2.10
2018-06-23T03:04:26.581Z,2.00
2018-06-23T03:06:32.048Z,1.53
2018-06-23T03:08:37.629Z,1.97
2018-06-23T03:10:42.939Z,1.90
2018-06-23T03:12:48.389Z,1.90
2018-06-23T03:14:53.781Z,1.87
2018-06-23T03:16:59.113Z,2.03
2018-06-23T03:19:04.467Z,2.13
2018-06-23T03:21:09.952Z,1.97
2018-06-23T03:23:15.194Z,1.83
2018-06-23T03:25:20.488Z,1.83
2018-06-23T03:27:25.802Z,2.27
2018-06-23T03:29:31.156Z,1.70
2018-06-23T03:31:36.640Z,1.77
2018-06-23T03:33:42.784Z,2.23
2018-06-23T03:35:48.240Z,1.77
2018-06-23T03:37:53.748Z,1.73
2018-06-23T03:39:59.222Z,2.00
2018-06-23T03:42:04.593Z,2.27
2018-06-23T03:44:10.034Z,1.90
2018-06-23T03:46:15.499Z,1.83
2018-06-23T03:48:20.787Z,2.10
2018-06-23T03:50:26.192Z,1.93
2018-06-23T03:52:31.477Z,2.13
2018-06-23T03:54:39.890Z,1.60
2018-06-23T03:56:45.198Z,1.97
2018-06-23T03:58:50.544Z,1.83
2018-06-23T04:00:55.963Z,2.37
2018-06-23T04:03:01.403Z,1.90
2018-06-23T04:05:06.519Z,1.40
2018-06-23T04:07:11.860Z,1.90
2018-06-23T04:09:17.219Z,1.87
2018-06-23T04:11:22.541Z,2.00
2018-06-23T04:13:27.851Z,2.07
2018-06-23T04:15:33.227Z,1.63
2018-06-23T04:17:38.553Z,1.90
2018-06-23T04:19:43.647Z,1.90
2018-06-23T04:21:48.937Z,2.10
2018-06-23T04:23:54.272Z,2.23
2018-06-23T04:25:59.576Z,2.10
2018-06-23T04:28:04.980Z,1.87
2018-06-23T04:30:10.296Z,1.90
2018-06-23T04:32:15.995Z,1.87
2018-06-23T04:34:21.403Z,2.37
2018-06-23T04:36:26.856Z,2.10
2018-06-23T04:38:32.159Z,2.43
2018-06-23T04:40:37.580Z,1.98
2018-06-23T04:42:42.788Z,2.17
2018-06-23T04:44:48.068Z,2.10
2018-06-23T04:46:53.416Z,2.30
2018-06-23T04:48:58.828Z,2.00
2018-06-23T04:51:04.197Z,2.50
2018-06-23T04:53:09.600Z,2.40
2018-06-23T04:55:14.966Z,2.00
2018-06-23T04:57:20.691Z,2.50
2018-06-23T04:59:25.985Z,2.47
2018-06-23T05:01:31.329Z,2.40
2018-06-23T05:03:36.732Z,2.20
2018-06-23T05:05:42.169Z,2.33
2018-06-23T05:07:47.682Z,2.20
2018-06-23T05:09:53.590Z,2.30
2018-06-23T05:11:58.968Z,2.40
2018-06-23T05:14:04.459Z,2.37
2018-06-23T05:16:09.697Z,2.43
2018-06-23T05:18:15.059Z,2.90
2018-06-23T05:20:20.684Z,2.10
2018-06-23T05:22:26.001Z,2.90
2018-06-23T05:24:31.409Z,2.80
2018-06-23T05:26:36.863Z,3.45
2018-06-23T05:28:42.404Z,2.90
2018-06-23T05:30:47.849Z,2.87
2018-06-23T05:32:53.369Z,2.90
2018-06-23T05:34:58.650Z,3.53
2018-06-23T05:37:03.989Z,2.87
2018-06-23T05:39:10.330Z,3.73
2018-06-23T05:41:15.727Z,3.70
2018-06-23T05:43:21.330Z,3.00
2018-06-23T05:45:26.726Z,3.25
2018-06-23T05:47:32.240Z,3.40
2018-06-23T05:49:37.547Z,3.20
2018-06-23T05:51:43.028Z,3.40
2018-06-23T05:53:48.352Z,3.17
2018-06-23T05:55:53.626Z,3.50
2018-06-23T05:57:58.868Z,3.40
2018-06-23T06:00:04.435Z,3.97
2018-06-23T06:02:10.192Z,3.33
2018-06-23T06:04:15.553Z,3.93
2018-06-23T06:06:21.034Z,4.30
2018-06-23T06:08:26.465Z,4.60
2018-06-23T06:10:31.882Z,4.57
2018-06-23T06:12:42.916Z,4.67
2018-06-23T06:14:53.959Z,4.80
2018-06-23T06:17:23.640Z,5.87
2018-06-23T06:19:34.995Z,4.42
2018-06-23T06:21:45.955Z,4.30
2018-06-23T06:23:51.602Z,4.97
2018-06-23T06:25:57.109Z,5.10
2018-06-23T06:28:02.484Z,4.20
2018-06-23T06:30:09.695Z,4.50
2018-06-23T06:32:15.063Z,4.77
2018-06-23T06:34:20.670Z,4.47
2018-06-23T06:36:26.303Z,4.27
2018-06-23T06:38:31.624Z,5.35
2018-06-23T06:40:37.030Z,5.00
2018-06-23T06:42:42.421Z,4.53
2018-06-23T06:44:48.031Z,4.20
2018-06-23T06:46:54.388Z,4.97
2018-06-23T06:48:59.777Z,5.03
2018-06-23T06:51:05.259Z,4.30
2018-06-23T06:53:10.594Z,5.17
2018-06-23T06:55:16.007Z,4.63
2018-06-23T06:57:21.516Z,5.30
2018-06-23T06:59:26.850Z,5.90
2018-06-23T07:01:32.195Z,4.97
2018-06-23T07:03:37.639Z,4.80
2018-06-23T07:05:42.835Z,5.47
2018-06-23T07:07:48.224Z,5.77
2018-06-23T07:09:53.736Z,4.90
2018-06-23T07:11:58.783Z,4.67
2018-06-23T07:14:05.212Z,4.97
2018-06-23T07:16:10.676Z,4.20
2018-06-23T07:18:16.057Z,5.10
2018-06-23T07:20:21.521Z,5.50
2018-06-23T07:22:27.044Z,5.37
2018-06-23T07:24:32.744Z,5.00
2018-06-23T07:26:37.756Z,4.90
2018-06-23T07:28:43.189Z,4.07
2018-06-23T07:30:48.634Z,4.37
2018-06-23T07:32:54.018Z,4.73
2018-06-23T07:34:59.460Z,4.90
2018-06-23T07:37:13.764Z,5.13
2018-06-23T07:39:33.585Z,6.12
2018-06-23T07:41:47.327Z,4.70
2018-06-23T07:43:52.925Z,4.20
2018-06-23T07:45:58.341Z,5.50
2018-06-23T07:48:03.824Z,5.67
2018-06-23T07:50:09.367Z,5.10
2018-06-23T07:52:14.708Z,5.20
2018-06-23T07:54:21.050Z,5.15
2018-06-23T07:56:26.480Z,5.67
2018-06-23T07:58:31.830Z,6.20
2018-06-23T08:00:36.886Z,6.07
2018-06-23T08:02:42.176Z,5.77
2018-06-23T08:04:47.824Z,6.50
2018-06-23T08:06:53.304Z,6.43
2018-06-23T08:08:58.864Z,7.70
2018-06-23T08:11:04.283Z,6.10
2018-06-23T08:13:09.815Z,6.80
2018-06-23T08:15:15.241Z,6.60
2018-06-23T08:17:21.101Z,6.57
2018-06-23T08:19:26.445Z,6.00
2018-06-23T08:21:31.834Z,6.15
2018-06-23T08:23:37.439Z,5.92
2018-06-23T08:25:42.872Z,6.40
2018-06-23T08:27:48.256Z,5.90
2018-06-23T08:29:53.745Z,6.30
2018-06-23T08:31:59.236Z,5.90
2018-06-23T08:34:04.954Z,6.03
2018-06-23T08:36:10.576Z,5.97
2018-06-23T08:38:15.672Z,5.43
2018-06-23T08:40:21.240Z,6.80
2018-06-23T08:42:26.730Z,5.80
2018-06-23T08:44:32.223Z,5.33
2018-06-23T08:46:37.644Z,5.83
2018-06-23T08:48:43.009Z,6.70
2018-06-23T08:50:48.376Z,5.97
2018-06-23T08:52:53.790Z,6.60
2018-06-23T08:54:59.217Z,6.23
2018-06-23T08:57:04.790Z,5.40
2018-06-23T08:59:10.225Z,6.40
2018-06-23T09:01:15.628Z,6.93
2018-06-23T09:03:21.164Z,5.20
2018-06-23T09:05:26.504Z,4.30
2018-06-23T09:07:31.857Z,4.92
2018-06-23T09:09:37.255Z,4.30
2018-06-23T09:11:42.875Z,4.90
2018-06-23T09:13:48.380Z,4.72
2018-06-23T09:15:53.862Z,3.87
2018-06-23T09:17:59.331Z,4.80
2018-06-23T09:20:04.871Z,5.20
2018-06-23T09:22:10.112Z,5.70
2018-06-23T09:24:15.383Z,4.60
2018-06-23T09:26:21.276Z,3.83
2018-06-23T09:28:26.711Z,3.98
2018-06-23T09:30:32.332Z,4.97
2018-06-23T09:32:37.807Z,4.37
2018-06-23T09:34:43.008Z,3.93
2018-06-23T09:36:48.394Z,3.20
2018-06-23T09:38:53.475Z,3.40
2018-06-23T09:40:58.970Z,2.93
2018-06-23T09:43:04.384Z,3.50
2018-06-23T09:45:09.779Z,3.67
2018-06-23T09:47:15.260Z,3.70
2018-06-23T09:49:21.308Z,4.23
2018-06-23T09:51:27.328Z,3.17
2018-06-23T09:53:33.219Z,3.72
2018-06-23T09:55:38.660Z,3.00
2018-06-23T09:57:44.101Z,2.87
2018-06-23T09:59:49.732Z,3.23
2018-06-23T10:02:01.669Z,2.77
2018-06-23T10:04:07.135Z,2.77
2018-06-23T10:06:12.488Z,3.13
2018-06-23T10:08:17.869Z,3.13
2018-06-23T10:10:23.459Z,3.20
2018-06-23T10:12:28.799Z,2.60
2018-06-23T10:14:34.248Z,2.70
2018-06-23T10:16:39.670Z,3.47
2018-06-23T10:18:45.060Z,2.77
2018-06-23T10:20:50.573Z,2.60
2018-06-23T10:22:56.096Z,2.50
2018-06-23T10:25:01.568Z,2.47
2018-06-23T10:27:06.980Z,2.60
2018-06-23T10:29:12.468Z,2.60
2018-06-23T10:31:17.878Z,2.90
2018-06-23T10:33:23.251Z,3.10
2018-06-23T10:35:28.664Z,2.80
2018-06-23T10:37:34.867Z,2.98
2018-06-23T10:39:40.429Z,2.43
2018-06-23T10:41:45.833Z,3.13
2018-06-23T10:43:51.254Z,3.27
2018-06-23T10:45:56.357Z,2.80
2018-06-23T10:48:01.756Z,2.33
2018-06-23T10:50:07.378Z,2.73
2018-06-23T10:52:13.113Z,2.90
2018-06-23T10:54:18.524Z,3.00
2018-06-23T10:56:24.392Z,2.97
2018-06-23T10:58:29.865Z,3.05
2018-06-23T11:00:35.353Z,2.63
2018-06-23T11:02:40.774Z,2.70
2018-06-23T11:04:46.394Z,2.53
2018-06-23T11:06:51.832Z,2.57
2018-06-23T11:08:57.262Z,2.70
2018-06-23T11:11:02.320Z,2.80
2018-06-23T11:13:07.718Z,3.50
2018-06-23T11:15:13.186Z,2.90
2018-06-23T11:17:18.535Z,3.03
2018-06-23T11:19:23.982Z,3.10
2018-06-23T11:21:29.456Z,3.12
2018-06-23T11:23:34.864Z,2.93
2018-06-23T11:25:40.378Z,2.70
2018-06-23T11:27:45.725Z,3.57
2018-06-23T11:29:51.588Z,2.97
2018-06-23T11:31:57.008Z,2.63
2018-06-23T11:34:02.550Z,2.80
2018-06-23T11:36:08.079Z,3.57
2018-06-23T11:38:13.263Z,2.60
2018-06-23T11:40:18.664Z,2.73
2018-06-23T11:42:24.028Z,3.93
2018-06-23T11:44:29.525Z,4.70
2018-06-23T11:46:34.959Z,4.00
2018-06-23T11:48:40.495Z,3.03
2018-06-23T11:50:46.053Z,2.60
2018-06-23T11:52:51.535Z,3.10
2018-06-23T11:54:57.145Z,3.80
2018-06-23T11:57:02.540Z,3.40
2018-06-23T11:59:07.982Z,3.10
2018-06-23T12:01:13.490Z,3.23
2018-06-23T12:03:19.061Z,2.97
2018-06-23T12:05:24.438Z,2.87
2018-06-23T12:07:30.247Z,2.90
2018-06-23T12:09:35.641Z,3.02
2018-06-23T12:11:41.167Z,3.10
2018-06-23T12:13:46.685Z,2.90
2018-06-23T12:15:52.125Z,2.47
2018-06-23T12:17:57.489Z,3.83
2018-06-23T12:20:03.257Z,2.70
2018-06-23T12:22:08.674Z,2.90
2018-06-23T12:24:14.178Z,3.10
2018-06-23T12:26:19.611Z,2.30
2018-06-23T12:28:24.995Z,2.70
2018-06-23T12:30:30.406Z,2.27
2018-06-23T12:32:35.955Z,2.50
2018-06-23T12:34:41.328Z,2.30
2018-06-23T12:36:46.717Z,3.07
2018-06-23T12:38:51.923Z,2.60
2018-06-23T12:40:57.345Z,2.80
2018-06-23T12:43:02.720Z,2.17
2018-06-23T12:45:08.206Z,2.20
2018-06-23T12:47:13.605Z,2.93
2018-06-23T12:49:19.068Z,2.40
2018-06-23T12:51:24.259Z,2.67
2018-06-23T12:53:29.568Z,2.23
2018-06-23T12:55:35.261Z,2.90
2018-06-23T12:57:41.360Z,3.07
2018-06-23T12:59:46.647Z,2.60
2018-06-23T13:01:51.749Z,2.50
2018-06-23T13:03:57.107Z,2.30
2018-06-23T13:06:02.569Z,2.40
2018-06-23T13:08:08.202Z,2.57
2018-06-23T13:10:13.689Z,2.20
2018-06-23T13:12:19.078Z,2.93
2018-06-23T13:14:24.469Z,2.43
2018-06-23T13:16:29.866Z,3.40
2018-06-23T13:18:35.220Z,2.60
2018-06-23T13:20:41.285Z,2.30
2018-06-23T13:22:46.759Z,2.73
2018-06-23T13:24:53.193Z,2.73
2018-06-23T13:26:58.625Z,2.60
2018-06-23T13:29:04.186Z,2.70
2018-06-23T13:31:09.706Z,2.30
2018-06-23T13:33:15.405Z,2.50
2018-06-23T13:35:21.948Z,3.40
2018-06-23T13:37:27.473Z,2.72
2018-06-23T13:39:32.889Z,2.53
2018-06-23T13:41:44.810Z,2.50
2018-06-23T13:43:50.234Z,2.80
2018-06-23T13:45:55.790Z,2.57
2018-06-23T13:48:01.315Z,2.93
2018-06-23T13:50:06.881Z,2.63
2018-06-23T13:52:12.359Z,2.73
2018-06-23T13:54:17.890Z,2.93
2018-06-23T13:56:23.346Z,2.47
2018-06-23T13:58:28.884Z,2.30
2018-06-23T14:00:34.329Z,2.10
2018-06-23T14:02:39.905Z,2.67
2018-06-23T14:04:45.295Z,2.27
2018-06-23T14:06:50.755Z,2.63
2018-06-23T14:08:56.316Z,1.80
2018-06-23T14:11:01.767Z,1.93
2018-06-23T14:13:07.345Z,2.43
2018-06-23T14:15:12.751Z,2.20
2018-06-23T14:17:18.404Z,2.57
2018-06-23T14:19:23.783Z,2.87
2018-06-23T14:21:29.206Z,2.33
2018-06-23T14:23:34.690Z,2.22
2018-06-23T14:25:40.460Z,2.60
2018-06-23T14:27:45.922Z,2.83
2018-06-23T14:29:51.356Z,1.77
2018-06-23T14:31:57.069Z,2.17
2018-06-23T14:34:02.343Z,2.83
2018-06-23T14:36:07.813Z,2.20
2018-06-23T14:38:13.302Z,2.17
2018-06-23T14:40:18.947Z,2.50
2018-06-23T14:42:26.897Z,2.20
2018-06-23T14:44:32.265Z,2.00
2018-06-23T14:46:37.684Z,2.20
2018-06-23T14:48:43.097Z,2.20
2018-06-23T14:50:48.521Z,2.13
2018-06-23T14:52:53.916Z,2.20
2018-06-23T14:54:59.323Z,2.00
2018-06-23T14:57:04.789Z,1.77
2018-06-23T14:59:10.243Z,1.87
2018-06-23T15:01:15.676Z,1.83
2018-06-23T15:03:22.001Z,2.00
2018-06-23T15:05:27.441Z,1.98
2018-06-23T15:07:32.820Z,1.80
2018-06-23T15:11:57.247Z,1.70
2018-06-23T15:14:02.975Z,1.70
2018-06-23T15:16:08.349Z,1.40
2018-06-23T15:18:13.813Z,1.50
2018-06-23T15:20:19.203Z,1.60
2018-06-23T15:22:24.689Z,2.00
2018-06-23T15:24:30.031Z,1.82
2018-06-23T15:26:35.516Z,1.77
2018-06-23T15:28:40.956Z,2.03
2018-06-23T15:30:46.339Z,1.77
2018-06-23T15:32:51.718Z,1.60
2018-06-23T15:34:57.064Z,1.53
2018-06-23T15:37:02.444Z,1.90
2018-06-23T15:39:09.616Z,1.73
2018-06-23T15:41:14.987Z,1.83
2018-06-23T15:43:20.429Z,1.50
2018-06-23T15:45:25.783Z,2.10
2018-06-23T15:47:31.235Z,2.13
2018-06-23T15:49:36.700Z,1.67
2018-06-23T15:51:42.095Z,1.80
2018-06-23T15:53:47.513Z,2.17
2018-06-23T15:55:53.014Z,1.90
2018-06-23T15:57:58.475Z,1.90
2018-06-23T16:00:03.869Z,1.37
2018-06-23T16:02:09.196Z,1.90
2018-06-23T16:04:14.618Z,1.80
2018-06-23T16:06:20.248Z,2.20
2018-06-23T16:08:25.573Z,2.00
2018-06-23T16:10:30.944Z,1.98
2018-06-23T16:12:36.393Z,2.12
2018-06-23T16:14:41.557Z,2.10
2018-06-23T16:16:46.916Z,1.93
2018-06-23T16:18:52.416Z,1.57
2018-06-23T16:20:57.872Z,1.87
2018-06-23T16:23:03.329Z,2.00
2018-06-23T16:25:08.956Z,2.30
2018-06-23T16:27:14.372Z,2.10
2018-06-23T16:29:19.735Z,1.83
2018-06-23T16:31:25.869Z,2.27
2018-06-23T16:33:31.244Z,1.82
2018-06-23T16:35:36.566Z,2.00
2018-06-23T16:37:41.948Z,2.00
2018-06-23T16:39:47.260Z,1.70
2018-06-23T16:41:52.679Z,1.40
2018-06-23T16:43:58.262Z,1.73
2018-06-23T16:46:03.759Z,1.63
2018-06-23T16:48:09.194Z,1.60
2018-06-23T16:50:14.551Z,1.93
2018-06-23T16:52:20.019Z,1.93
2018-06-23T16:54:25.452Z,1.90
2018-06-23T16:56:30.880Z,2.05
2018-06-23T16:58:36.291Z,1.90
2018-06-23T17:00:41.663Z,1.90
2018-06-23T17:02:47.076Z,2.33
2018-06-23T17:04:52.414Z,2.03
2018-06-23T17:06:57.895Z,2.43
2018-06-23T17:09:03.894Z,2.47
2018-06-23T17:11:09.279Z,2.13
2018-06-23T17:13:14.654Z,2.50
2018-06-23T17:15:20.012Z,2.00
2018-06-23T17:17:25.270Z,2.40
2018-06-23T17:19:30.726Z,2.08
2018-06-23T17:21:36.074Z,2.35
2018-06-23T17:23:41.656Z,2.60
2018-06-23T17:25:47.056Z,1.83
2018-06-23T17:27:52.420Z,2.60
2018-06-23T17:29:57.866Z,2.10
2018-06-23T17:32:03.380Z,2.40
2018-06-23T17:34:08.759Z,2.00
2018-06-23T17:36:14.093Z,4.00
2018-06-23T17:38:19.512Z,1.70
2018-06-23T17:40:24.874Z,2.20
2018-06-23T17:42:30.264Z,1.60
2018-06-23T17:44:35.631Z,2.00
2018-06-23T17:46:41.082Z,1.83
2018-06-23T17:48:46.603Z,2.10
2018-06-23T17:50:51.946Z,1.60
2018-06-23T17:52:57.305Z,1.80
2018-06-23T17:55:02.682Z,1.80
2018-06-23T17:57:08.075Z,2.43
2018-06-23T17:59:13.508Z,1.80
2018-06-23T18:01:19.094Z,1.77
2018-06-23T18:03:24.436Z,1.98
2018-06-23T18:05:29.809Z,2.10
2018-06-23T18:07:35.724Z,2.60
2018-06-23T18:09:41.106Z,2.83
2018-06-23T18:11:46.510Z,2.10
2018-06-23T18:13:51.872Z,2.20
2018-06-23T18:15:57.184Z,2.07
2018-06-23T18:18:02.603Z,2.27
2018-06-23T18:20:08.182Z,2.20
2018-06-23T18:22:13.574Z,2.30
2018-06-23T18:24:18.948Z,2.00
2018-06-23T18:26:24.299Z,2.07
2018-06-23T18:28:36.194Z,1.82
2018-06-23T18:30:41.575Z,2.30
2018-06-23T18:32:47.015Z,2.30
2018-06-23T18:34:52.326Z,1.87
2018-06-23T18:36:57.653Z,1.80
2018-06-23T18:39:03.842Z,1.53
2018-06-23T18:41:09.187Z,1.90
2018-06-23T18:43:14.720Z,2.47
2018-06-23T18:45:20.193Z,2.50
2018-06-23T18:47:25.642Z,2.30
2018-06-23T18:49:31.827Z,1.82
2018-06-23T18:51:37.296Z,2.12
2018-06-23T18:53:42.716Z,2.20
2018-06-23T18:55:48.172Z,2.50
2018-06-23T18:57:53.532Z,2.40
2018-06-23T18:59:58.849Z,1.93
2018-06-23T19:02:04.457Z,2.27
2018-06-23T19:04:09.779Z,2.20
2018-06-23T19:06:18.637Z,1.90
2018-06-23T19:08:23.995Z,2.17
2018-06-23T19:10:29.371Z,2.30
2018-06-23T19:12:35.404Z,2.02
2018-06-23T19:14:40.788Z,2.00
2018-06-23T19:16:46.320Z,2.20
2018-06-23T19:18:51.672Z,2.37
2018-06-23T19:20:57.075Z,2.03
2018-06-23T19:23:02.553Z,2.07
2018-06-23T19:25:08.035Z,1.83
2018-06-23T19:27:13.457Z,2.10
2018-06-23T19:29:18.913Z,2.60
2018-06-23T19:31:24.252Z,2.17
2018-06-23T19:33:30.173Z,2.30
2018-06-23T19:35:35.532Z,2.50
2018-06-23T19:37:40.871Z,2.43
2018-06-23T19:39:46.524Z,1.77
2018-06-23T19:41:51.994Z,1.93
2018-06-23T19:43:57.294Z,2.40
2018-06-23T19:46:02.608Z,1.87
2018-06-23T19:48:08.005Z,1.93
2018-06-23T19:50:13.396Z,2.00
2018-06-23T19:52:18.896Z,2.40
2018-06-23T19:54:24.448Z,1.70
2018-06-23T19:56:29.801Z,2.27
2018-06-23T19:58:35.269Z,2.17
2018-06-23T20:00:40.632Z,2.12
2018-06-23T20:02:45.962Z,2.20
2018-06-23T20:04:51.293Z,2.10
2018-06-23T20:06:56.670Z,2.33
2018-06-23T20:09:02.094Z,2.50
2018-06-23T20:11:07.601Z,2.13
2018-06-23T20:13:13.021Z,2.13
2018-06-23T20:15:18.505Z,2.43
2018-06-23T20:17:23.899Z,2.13
2018-06-23T20:19:29.263Z,2.10
2018-06-23T20:21:34.595Z,2.15
2018-06-23T20:23:40.028Z,2.40
2018-06-23T20:25:45.831Z,2.80
2018-06-23T20:27:51.216Z,2.17
2018-06-23T20:29:56.815Z,2.40
2018-06-23T20:32:03.055Z,2.07
2018-06-23T20:34:08.459Z,2.40
2018-06-23T20:36:13.804Z,2.23
2018-06-23T20:38:19.152Z,2.70
2018-06-23T20:40:24.535Z,2.50
2018-06-23T20:42:29.947Z,2.58
2018-06-23T20:44:35.344Z,2.58
2018-06-23T20:46:40.792Z,2.05
2018-06-23T20:48:46.216Z,2.63
2018-06-23T20:50:51.587Z,2.30
2018-06-23T20:52:56.988Z,2.70
2018-06-23T20:55:02.372Z,2.50
2018-06-23T20:57:07.749Z,2.00
2018-06-23T20:59:13.181Z,2.40
2018-06-23T21:01:18.698Z,2.13
2018-06-23T21:03:24.103Z,1.60
2018-06-23T21:05:29.497Z,2.40
2018-06-23T21:07:34.859Z,2.08
2018-06-23T21:09:40.248Z,2.00
2018-06-23T21:11:45.696Z,2.33
2018-06-23T21:13:51.155Z,2.27
2018-06-23T21:15:56.510Z,2.57
2018-06-23T21:18:02.025Z,2.50
2018-06-23T21:20:07.557Z,2.20
2018-06-23T21:22:12.928Z,2.30
2018-06-23T21:24:18.260Z,2.40
2018-06-23T21:26:23.663Z,2.03
2018-06-23T21:28:29.017Z,2.20
2018-06-23T21:30:34.556Z,2.60
2018-06-23T21:32:39.749Z,2.20
2018-06-23T21:34:45.055Z,2.23
2018-06-23T21:36:50.438Z,2.10
2018-06-23T21:38:55.807Z,2.60
2018-06-23T21:41:01.224Z,3.00
2018-06-23T21:43:06.639Z,2.70
2018-06-23T21:45:11.997Z,2.40
2018-06-23T21:47:17.382Z,2.23
2018-06-23T21:49:22.920Z,2.40
2018-06-23T21:51:28.376Z,2.40
2018-06-23T21:53:33.708Z,2.50
2018-06-23T21:55:39.190Z,2.85
2018-06-23T21:57:44.535Z,2.30
2018-06-23T21:59:49.907Z,2.40
2018-06-23T22:01:55.318Z,2.20
2018-06-23T22:04:00.709Z,2.90
2018-06-23T22:06:06.074Z,2.50
2018-06-23T22:08:11.517Z,2.50
2018-06-23T22:10:16.911Z,2.10
2018-06-23T22:12:22.931Z,2.70
2018-06-23T22:14:28.290Z,3.25
2018-06-23T22:16:33.682Z,3.35
2018-06-23T22:18:39.233Z,2.65
2018-06-23T22:20:44.591Z,2.20
2018-06-23T22:22:50.855Z,2.47
2018-06-23T22:24:56.269Z,2.40
2018-06-23T22:27:01.737Z,3.43
2018-06-23T22:29:07.209Z,3.60
2018-06-23T22:31:12.576Z,2.70
2018-06-23T22:33:17.931Z,2.60
2018-06-23T22:35:23.258Z,2.70
2018-06-23T22:37:28.708Z,2.50
2018-06-23T22:39:34.045Z,2.70
2018-06-23T22:41:39.783Z,2.37
2018-06-23T22:43:45.210Z,2.50
2018-06-23T22:45:50.572Z,2.40
2018-06-23T22:47:56.072Z,2.12
2018-06-23T22:50:01.452Z,2.27
2018-06-23T22:52:06.773Z,2.40
2018-06-23T22:54:12.154Z,2.30
2018-06-23T22:56:17.592Z,2.47
2018-06-23T22:58:23.279Z,2.33
2018-06-23T23:00:29.449Z,2.60
2018-06-23T23:02:34.792Z,2.30
2018-06-23T23:04:40.289Z,2.17
2018-06-23T23:06:45.644Z,2.10
2018-06-23T23:08:50.991Z,2.60
2018-06-23T23:10:56.519Z,2.43
2018-06-23T23:13:01.797Z,3.37
2018-06-23T23:15:07.314Z,2.23
2018-06-23T23:17:12.959Z,2.30
2018-06-23T23:19:18.997Z,2.30
2018-06-23T23:21:24.473Z,2.30
2018-06-23T23:23:30.432Z,2.30
2018-06-23T23:25:35.835Z,2.35
2018-06-23T23:27:41.395Z,2.13
2018-06-23T23:29:47.370Z,2.30
2018-06-23T23:31:52.896Z,2.43
2018-06-23T23:33:59.245Z,2.23
2018-06-23T23:36:04.644Z,2.40
2018-06-23T23:38:10.015Z,2.20
2018-06-23T23:40:15.356Z,2.10
2018-06-23T23:42:20.749Z,2.07
2018-06-23T23:44:26.137Z,2.02
2018-06-23T23:46:32.360Z,2.27
2018-06-23T23:48:37.769Z,2.30
2018-06-23T23:50:43.388Z,2.57
2018-06-23T23:52:48.943Z,2.33
2018-06-23T23:54:54.315Z,2.20
2018-06-23T23:56:59.690Z,2.50
2018-06-23T23:59:05.136Z,2.20
